createdAt,value
2022-11-30T00:01:32.705Z,98.59
2022-11-30T00:04:00.492Z,98.67
2022-11-30T00:06:29.554Z,98.88
2022-11-30T00:08:58.312Z,98.74
2022-11-30T00:11:28.593Z,98.78
2022-11-30T00:13:56.779Z,98.79
2022-11-30T00:16:24.968Z,99.12
2022-11-30T00:18:52.890Z,99.19
2022-11-30T00:21:20.780Z,99.09
2022-11-30T00:23:49.264Z,99.19
2022-11-30T00:26:19.095Z,99.28
2022-11-30T00:28:47.696Z,99.33
2022-11-30T00:31:17.816Z,99.36
2022-11-30T00:33:46.049Z,99.34
2022-11-30T00:36:14.853Z,99.38
2022-11-30T00:38:44.169Z,99.53
2022-11-30T00:41:12.523Z,99.62
2022-11-30T00:43:40.311Z,99.61
2022-11-30T00:46:11.933Z,99.62
2022-11-30T00:48:40.624Z,99.92
2022-11-30T00:51:12.224Z,99.86
2022-11-30T00:53:41.100Z,99.98
2022-11-30T00:56:09.896Z,99.99
2022-11-30T00:58:37.640Z,99.99
2022-11-30T01:01:05.660Z,99.99
2022-11-30T01:03:33.771Z,99.99
2022-11-30T01:06:09.514Z,99.99
2022-11-30T01:08:37.386Z,99.99
2022-11-30T01:11:17.131Z,99.99
2022-11-30T01:13:46.181Z,99.99
2022-11-30T01:16:17.351Z,99.99
2022-11-30T01:18:46.161Z,99.99
2022-11-30T01:21:17.049Z,99.99
2022-11-30T01:23:46.859Z,99.99
2022-11-30T01:26:15.183Z,99.99
2022-11-30T01:28:44.253Z,99.99
2022-11-30T01:31:14.681Z,99.99
2022-11-30T01:33:43.082Z,99.99
2022-11-30T01:36:16.706Z,99.99
2022-11-30T01:38:50.578Z,99.99
2022-11-30T01:41:25.313Z,99.99
2022-11-30T01:43:56.594Z,99.99
2022-11-30T01:46:46.018Z,99.99
2022-11-30T01:49:19.676Z,99.99
2022-11-30T01:51:55.366Z,99.99
2022-11-30T01:54:30.922Z,99.99
2022-11-30T01:57:05.692Z,99.99
2022-11-30T01:59:33.761Z,99.99
2022-11-30T02:02:01.592Z,99.99
2022-11-30T02:04:32.432Z,99.99
2022-11-30T02:07:01.550Z,99.99
2022-11-30T02:09:31.676Z,99.99
2022-11-30T02:12:00.444Z,99.99
2022-11-30T02:14:47.189Z,99.99
2022-11-30T02:17:27.992Z,99.99
2022-11-30T02:20:23.343Z,99.99
2022-11-30T02:23:07.463Z,99.99
2022-11-30T02:25:44.681Z,99.99
2022-11-30T02:28:36.503Z,99.99
2022-11-30T02:31:10.540Z,99.99
2022-11-30T02:33:40.413Z,99.99
2022-11-30T02:36:09.813Z,99.99
2022-11-30T02:38:39.153Z,99.99
2022-11-30T02:41:07.394Z,99.99
2022-11-30T02:43:35.886Z,99.99
2022-11-30T02:46:42.320Z,99.99
2022-11-30T02:49:20.882Z,99.99
2022-11-30T02:51:50.394Z,99.99
2022-11-30T02:54:18.998Z,99.99
2022-11-30T02:56:46.830Z,99.99
2022-11-30T02:59:14.749Z,99.99
2022-11-30T03:01:42.791Z,99.99
2022-11-30T03:04:10.702Z,99.99
2022-11-30T03:06:39.706Z,99.99
2022-11-30T03:09:07.924Z,99.99
2022-11-30T03:11:35.795Z,99.99
2022-11-30T03:14:04.203Z,99.99
2022-11-30T03:16:32.087Z,99.99
2022-11-30T03:19:03.382Z,99.99
2022-11-30T03:21:32.379Z,99.99
2022-11-30T03:24:00.290Z,99.99
2022-11-30T03:26:28.170Z,99.99
2022-11-30T03:28:56.097Z,99.99
2022-11-30T03:31:23.967Z,99.99
2022-11-30T03:33:51.733Z,99.99
2022-11-30T03:36:19.574Z,99.99
2022-11-30T03:38:51.324Z,99.99
2022-11-30T03:41:19.162Z,99.99
2022-11-30T03:43:47.540Z,99.99
2022-11-30T03:46:15.950Z,99.99
2022-11-30T03:48:45.375Z,99.99
2022-11-30T03:51:13.695Z,99.99
2022-11-30T03:53:41.876Z,99.99
2022-11-30T03:56:10.819Z,99.99
2022-11-30T03:58:39.044Z,99.99
2022-11-30T04:01:08.851Z,99.99
2022-11-30T04:03:37.738Z,99.99
2022-11-30T04:06:07.795Z,99.99
2022-11-30T04:08:35.914Z,99.99
2022-11-30T04:11:04.964Z,99.99
2022-11-30T04:13:34.643Z,99.99
2022-11-30T04:16:03.281Z,99.99
2022-11-30T04:18:32.738Z,99.99
2022-11-30T04:21:01.451Z,99.99
2022-11-30T04:23:35.450Z,99.99
2022-11-30T04:26:08.629Z,99.99
2022-11-30T04:28:36.534Z,99.99
2022-11-30T04:31:04.754Z,99.99
2022-11-30T04:33:38.618Z,99.99
2022-11-30T04:36:15.623Z,99.99
2022-11-30T04:38:43.492Z,99.99
2022-11-30T04:41:11.309Z,99.99
2022-11-30T04:43:39.322Z,99.99
2022-11-30T04:46:07.224Z,99.99
2022-11-30T04:48:35.315Z,99.99
2022-11-30T04:51:06.040Z,99.99
2022-11-30T04:53:36.468Z,99.99
2022-11-30T04:56:09.060Z,99.99
2022-11-30T04:58:38.788Z,99.99
2022-11-30T05:01:07.464Z,99.99
2022-11-30T05:03:35.715Z,99.99
2022-11-30T05:06:04.623Z,99.99
2022-11-30T05:08:32.446Z,99.99
2022-11-30T05:11:00.307Z,99.99
2022-11-30T05:13:28.259Z,99.99
2022-11-30T05:15:56.200Z,99.99
2022-11-30T05:18:24.372Z,99.99
2022-11-30T05:20:53.000Z,99.99
2022-11-30T05:23:21.394Z,99.99
2022-11-30T05:25:49.256Z,99.99
2022-11-30T05:28:17.136Z,99.99
2022-11-30T05:30:45.180Z,99.99
2022-11-30T05:33:13.533Z,99.99
2022-11-30T05:35:41.363Z,99.99
2022-11-30T05:38:09.278Z,99.99
2022-11-30T05:40:37.187Z,99.99
2022-11-30T05:43:06.304Z,99.99
2022-11-30T05:45:35.173Z,99.99
2022-11-30T05:48:02.918Z,99.99
2022-11-30T05:50:31.320Z,99.99
2022-11-30T05:53:03.192Z,99.99
2022-11-30T05:55:32.317Z,99.99
2022-11-30T05:58:00.788Z,99.99
2022-11-30T06:00:38.345Z,99.99
2022-11-30T06:03:06.121Z,99.99
2022-11-30T06:05:36.489Z,99.99
2022-11-30T06:08:04.402Z,99.99
2022-11-30T06:10:32.306Z,99.99
2022-11-30T06:13:09.836Z,99.99
2022-11-30T06:15:38.422Z,99.99
2022-11-30T06:18:07.196Z,99.99
2022-11-30T06:20:35.250Z,99.99
2022-11-30T06:23:03.036Z,99.99
2022-11-30T06:25:31.114Z,99.99
2022-11-30T06:27:59.115Z,99.99
2022-11-30T06:30:27.339Z,99.99
2022-11-30T06:32:55.762Z,99.99
2022-11-30T06:35:25.436Z,99.99
2022-11-30T06:37:55.108Z,99.99
2022-11-30T06:40:23.089Z,99.99
2022-11-30T06:42:50.822Z,99.99
2022-11-30T06:45:19.319Z,99.99
2022-11-30T06:47:47.160Z,99.99
2022-11-30T06:50:15.090Z,99.99
2022-11-30T06:52:42.895Z,99.99
2022-11-30T06:55:10.901Z,99.99
2022-11-30T06:57:38.759Z,99.99
2022-11-30T07:00:08.418Z,99.99
2022-11-30T07:02:36.851Z,99.99
2022-11-30T07:05:05.420Z,99.99
2022-11-30T07:07:33.246Z,99.99
2022-11-30T07:10:01.150Z,99.99
2022-11-30T07:12:29.083Z,99.99
2022-11-30T07:14:56.899Z,99.99
2022-11-30T07:17:25.747Z,99.99
2022-11-30T07:19:53.530Z,99.99
2022-11-30T07:22:21.293Z,99.99
2022-11-30T07:25:08.712Z,99.99
2022-11-30T07:27:36.479Z,99.99
2022-11-30T07:30:04.780Z,99.99
2022-11-30T07:32:32.622Z,99.99
2022-11-30T07:35:00.419Z,99.99
2022-11-30T07:37:32.301Z,99.99
2022-11-30T07:40:04.779Z,99.99
2022-11-30T07:42:32.572Z,99.99
2022-11-30T07:45:00.542Z,99.99
2022-11-30T07:47:28.561Z,99.99
2022-11-30T07:49:57.204Z,99.99
2022-11-30T07:52:26.144Z,99.99
2022-11-30T07:54:53.883Z,99.99
2022-11-30T07:57:21.707Z,99.99
2022-11-30T07:59:50.791Z,99.99
2022-11-30T08:02:18.834Z,99.99
2022-11-30T08:04:47.091Z,99.99
2022-11-30T08:07:15.288Z,99.99
2022-11-30T08:09:44.977Z,99.99
2022-11-30T08:12:12.750Z,99.99
2022-11-30T08:15:11.149Z,99.99
2022-11-30T08:17:28.597Z,99.99
2022-11-30T08:19:56.381Z,99.99
2022-11-30T08:22:24.183Z,99.99
2022-11-30T08:24:52.041Z,99.99
2022-11-30T08:27:19.891Z,99.99
2022-11-30T08:29:47.762Z,99.99
2022-11-30T08:32:15.579Z,99.99
2022-11-30T08:34:43.446Z,99.99
2022-11-30T08:37:11.311Z,99.99
2022-11-30T08:39:39.426Z,99.99
2022-11-30T08:42:07.394Z,99.99
2022-11-30T08:44:35.160Z,99.99
2022-11-30T08:47:02.913Z,99.99
2022-11-30T08:49:30.980Z,99.99
2022-11-30T08:54:48.069Z,99.99
2022-11-30T08:57:17.667Z,99.99
2022-11-30T08:59:45.914Z,99.99
2022-11-30T09:02:17.616Z,99.99
2022-11-30T09:04:48.803Z,99.99
2022-11-30T09:07:17.166Z,99.99
2022-11-30T09:09:44.960Z,99.99
2022-11-30T09:12:12.876Z,99.99
2022-11-30T09:14:40.636Z,99.99
2022-11-30T09:17:08.507Z,99.99
2022-11-30T09:19:36.398Z,99.99
2022-11-30T09:22:04.293Z,99.99
2022-11-30T09:24:32.171Z,99.99
2022-11-30T09:27:01.152Z,99.99
2022-11-30T09:29:30.964Z,99.99
2022-11-30T09:31:58.909Z,99.99
2022-11-30T09:34:31.276Z,99.99
2022-11-30T09:36:59.223Z,99.99
2022-11-30T09:39:27.032Z,99.99
2022-11-30T09:42:23.856Z,99.99
2022-11-30T09:44:58.627Z,99.99
2022-11-30T09:48:12.332Z,99.99
2022-11-30T09:50:44.203Z,99.99
2022-11-30T09:53:38.304Z,99.99
2022-11-30T09:56:27.435Z,99.99
2022-11-30T09:59:06.773Z,99.99
2022-11-30T10:01:37.565Z,99.99
2022-11-30T10:04:06.239Z,99.99
2022-11-30T10:06:54.024Z,99.99
2022-11-30T10:09:53.153Z,99.99
2022-11-30T10:12:58.481Z,99.99
2022-11-30T10:15:41.436Z,99.99
2022-11-30T10:18:22.702Z,99.99
2022-11-30T10:20:59.769Z,99.99
2022-11-30T10:23:36.811Z,99.99
2022-11-30T10:26:11.944Z,99.99
2022-11-30T10:28:57.659Z,99.99
2022-11-30T10:31:34.071Z,99.99
2022-11-30T10:34:23.404Z,99.99
2022-11-30T10:37:39.415Z,99.60
2022-11-30T10:40:40.756Z,99.03
2022-11-30T10:43:40.881Z,98.97
2022-11-30T10:46:21.755Z,98.51
2022-11-30T10:48:58.927Z,98.69
2022-11-30T10:51:27.776Z,98.64
2022-11-30T10:53:58.813Z,98.13
2022-11-30T10:56:26.760Z,98.10
2022-11-30T10:58:59.096Z,97.84
2022-11-30T11:01:39.301Z,97.85
2022-11-30T11:04:13.274Z,97.95
2022-11-30T11:06:47.903Z,97.58
2022-11-30T11:09:41.343Z,97.48
2022-11-30T11:12:24.575Z,96.75
2022-11-30T11:15:25.703Z,96.88
2022-11-30T11:18:11.550Z,96.73
2022-11-30T11:20:42.586Z,96.51
2022-11-30T11:23:24.323Z,95.71
2022-11-30T11:25:53.292Z,96.20
2022-11-30T11:28:21.977Z,96.32
2022-11-30T11:30:51.946Z,95.69
2022-11-30T11:33:23.262Z,94.95
2022-11-30T11:35:54.266Z,94.64
2022-11-30T11:38:23.230Z,93.96
2022-11-30T11:41:13.356Z,93.67
2022-11-30T11:44:23.611Z,93.38
2022-11-30T11:47:03.383Z,93.55
2022-11-30T11:49:35.187Z,93.42
2022-11-30T11:52:15.217Z,93.84
2022-11-30T11:54:57.231Z,94.18
2022-11-30T11:57:40.696Z,93.20
2022-11-30T12:00:16.796Z,93.08
2022-11-30T12:03:21.662Z,93.24
2022-11-30T12:06:04.027Z,94.01
2022-11-30T12:08:43.144Z,93.90
2022-11-30T12:11:34.341Z,93.70
2022-11-30T12:14:09.310Z,93.53
2022-11-30T12:16:56.028Z,93.48
2022-11-30T12:19:57.692Z,93.47
2022-11-30T12:22:44.534Z,93.46
2022-11-30T12:25:25.179Z,93.93
2022-11-30T12:28:01.309Z,94.17
2022-11-30T12:31:11.536Z,94.46
2022-11-30T12:34:01.111Z,94.10
2022-11-30T12:36:38.286Z,94.29
2022-11-30T12:39:24.301Z,93.78
2022-11-30T12:41:59.653Z,94.22
2022-11-30T12:44:42.483Z,94.02
2022-11-30T12:47:46.416Z,94.32
2022-11-30T12:50:26.593Z,94.44
2022-11-30T12:53:12.431Z,94.87
2022-11-30T12:56:01.516Z,95.14
2022-11-30T12:58:38.257Z,94.95
2022-11-30T13:01:22.792Z,95.04
2022-11-30T13:04:29.391Z,95.00
2022-11-30T13:07:21.414Z,94.85
2022-11-30T13:09:56.270Z,94.89
2022-11-30T13:12:47.731Z,95.02
2022-11-30T13:15:22.623Z,95.08
2022-11-30T13:17:53.152Z,95.28
2022-11-30T13:20:52.870Z,95.46
2022-11-30T13:23:39.058Z,95.50
2022-11-30T13:26:28.256Z,95.49
2022-11-30T13:29:20.515Z,95.64
2022-11-30T13:32:05.367Z,95.51
2022-11-30T13:34:33.776Z,95.73
2022-11-30T13:37:11.645Z,95.60
2022-11-30T13:39:51.507Z,95.58
2022-11-30T13:42:40.319Z,95.56
2022-11-30T13:45:14.001Z,95.26
2022-11-30T13:47:47.827Z,94.83
2022-11-30T13:50:36.777Z,94.98
2022-11-30T13:53:04.607Z,94.84
2022-11-30T13:56:01.081Z,95.44
2022-11-30T13:58:29.571Z,95.57
2022-11-30T14:01:27.944Z,95.82
2022-11-30T14:04:14.482Z,95.65
2022-11-30T14:06:43.886Z,95.58
2022-11-30T14:09:16.177Z,95.83
2022-11-30T14:11:45.805Z,96.02
2022-11-30T14:14:45.648Z,96.16
2022-11-30T14:17:22.214Z,96.02
2022-11-30T14:19:53.937Z,96.00
2022-11-30T14:22:21.906Z,96.25
2022-11-30T14:24:50.446Z,96.30
2022-11-30T14:27:22.570Z,95.95
2022-11-30T14:29:59.052Z,96.11
2022-11-30T14:32:38.089Z,95.64
2022-11-30T14:35:13.014Z,95.66
2022-11-30T14:37:43.255Z,95.29
2022-11-30T14:40:18.993Z,94.97
2022-11-30T14:42:50.414Z,95.04
2022-11-30T14:45:27.037Z,95.21
2022-11-30T14:48:18.314Z,95.50
2022-11-30T14:50:52.584Z,95.13
2022-11-30T14:53:33.834Z,94.99
2022-11-30T14:56:31.557Z,95.09
2022-11-30T14:59:31.309Z,95.37
2022-11-30T15:02:02.701Z,95.26
2022-11-30T15:04:31.677Z,95.35
2022-11-30T15:07:00.337Z,95.31
2022-11-30T15:09:31.581Z,95.35
2022-11-30T15:12:03.738Z,95.42
2022-11-30T15:14:32.133Z,95.61
2022-11-30T15:17:00.091Z,95.54
2022-11-30T15:19:33.185Z,95.59
2022-11-30T15:22:01.488Z,95.59
2022-11-30T15:24:29.815Z,95.55
2022-11-30T15:27:14.124Z,95.68
2022-11-30T15:29:47.217Z,95.79
2022-11-30T15:32:23.038Z,95.78
2022-11-30T15:34:56.872Z,95.32
2022-11-30T15:37:39.661Z,95.39
2022-11-30T15:40:10.755Z,95.58
2022-11-30T15:42:40.647Z,95.64
2022-11-30T15:45:17.803Z,95.60
2022-11-30T15:47:45.990Z,95.58
2022-11-30T15:50:35.337Z,95.31
2022-11-30T15:53:20.005Z,95.26
2022-11-30T15:55:56.456Z,95.35
2022-11-30T15:58:28.564Z,95.43
2022-11-30T16:01:05.425Z,95.63
2022-11-30T16:03:58.189Z,95.67
2022-11-30T16:06:36.556Z,95.79
2022-11-30T16:09:19.185Z,96.10
2022-11-30T16:11:53.722Z,96.13
2022-11-30T16:14:21.524Z,96.27
2022-11-30T16:16:49.844Z,96.27
2022-11-30T16:19:21.841Z,96.40
2022-11-30T16:21:50.150Z,96.55
2022-11-30T16:24:18.403Z,96.41
2022-11-30T16:26:53.351Z,96.52
2022-11-30T16:29:22.762Z,96.68
2022-11-30T16:31:50.715Z,96.84
2022-11-30T16:34:19.124Z,96.91
2022-11-30T16:36:46.955Z,96.93
2022-11-30T16:39:15.210Z,96.97
2022-11-30T16:41:45.216Z,97.09
2022-11-30T16:44:14.681Z,97.09
2022-11-30T16:46:42.639Z,97.09
2022-11-30T16:49:10.650Z,97.05
2022-11-30T16:51:41.795Z,96.99
2022-11-30T16:54:35.673Z,97.00
2022-11-30T16:57:07.798Z,97.10
2022-11-30T16:59:35.631Z,97.03
2022-11-30T17:02:03.877Z,97.04
2022-11-30T17:04:32.670Z,97.05
2022-11-30T17:07:02.688Z,97.01
2022-11-30T17:09:34.397Z,97.00
2022-11-30T17:12:02.981Z,96.97
2022-11-30T17:14:30.714Z,96.90
2022-11-30T17:17:00.636Z,96.95
2022-11-30T17:19:28.673Z,96.90
2022-11-30T17:21:56.574Z,96.96
2022-11-30T17:24:25.479Z,96.97
2022-11-30T17:26:53.450Z,97.08
2022-11-30T17:29:22.289Z,97.11
2022-11-30T17:31:50.129Z,97.03
2022-11-30T17:34:22.665Z,97.32
2022-11-30T17:36:51.206Z,97.43
2022-11-30T17:39:19.461Z,97.50
2022-11-30T17:41:49.466Z,97.46
2022-11-30T17:44:20.443Z,97.30
2022-11-30T17:46:48.655Z,97.15
2022-11-30T17:49:16.500Z,97.23
2022-11-30T17:51:53.844Z,97.42
2022-11-30T17:54:21.737Z,97.53
2022-11-30T17:56:50.212Z,97.56
2022-11-30T17:59:22.219Z,97.46
2022-11-30T18:01:51.263Z,97.37
2022-11-30T18:04:19.309Z,97.54
2022-11-30T18:06:47.317Z,97.57
2022-11-30T18:09:16.514Z,97.55
2022-11-30T18:11:44.513Z,97.53
2022-11-30T18:14:12.407Z,97.46
2022-11-30T18:16:40.597Z,97.66
2022-11-30T18:19:14.706Z,97.61
2022-11-30T18:21:48.415Z,97.77
2022-11-30T18:24:22.442Z,97.74
2022-11-30T18:26:53.062Z,97.72
2022-11-30T18:29:21.361Z,97.82
2022-11-30T18:31:50.179Z,97.94
2022-11-30T18:34:18.646Z,98.17
2022-11-30T18:36:51.410Z,97.99
2022-11-30T18:39:20.407Z,98.04
2022-11-30T18:41:52.536Z,98.16
2022-11-30T18:44:20.348Z,98.25
2022-11-30T18:46:50.273Z,97.94
2022-11-30T18:49:20.831Z,97.92
2022-11-30T18:51:49.172Z,97.92
2022-11-30T18:54:21.208Z,97.79
2022-11-30T18:56:51.250Z,97.56
2022-11-30T18:59:20.159Z,97.58
2022-11-30T19:01:51.044Z,97.59
2022-11-30T19:04:19.079Z,97.46
2022-11-30T19:06:50.540Z,97.36
2022-11-30T19:09:19.992Z,96.60
2022-11-30T19:11:48.141Z,96.49
2022-11-30T19:14:18.093Z,96.38
2022-11-30T19:16:47.277Z,96.50
2022-11-30T19:19:15.854Z,96.51
2022-11-30T19:21:54.859Z,96.40
2022-11-30T19:24:24.102Z,96.59
2022-11-30T19:26:53.441Z,96.62
2022-11-30T19:29:37.873Z,96.54
2022-11-30T19:32:06.058Z,96.77
2022-11-30T19:34:33.967Z,96.98
2022-11-30T19:37:02.101Z,97.04
2022-11-30T19:39:30.199Z,97.10
2022-11-30T19:41:59.323Z,97.13
2022-11-30T19:44:28.290Z,97.33
2022-11-30T19:46:58.163Z,97.46
2022-11-30T19:49:34.238Z,97.76
2022-11-30T19:52:05.675Z,97.68
2022-11-30T19:54:47.224Z,97.57
2022-11-30T19:57:15.452Z,97.42
2022-11-30T19:59:43.451Z,97.26
2022-11-30T20:02:13.529Z,97.33
2022-11-30T20:04:41.703Z,97.27
2022-11-30T20:07:36.296Z,97.20
2022-11-30T20:10:09.941Z,97.24
2022-11-30T20:12:41.818Z,97.36
2022-11-30T20:15:10.171Z,97.38
2022-11-30T20:17:37.976Z,97.50
2022-11-30T20:20:13.883Z,97.35
2022-11-30T20:22:47.639Z,97.47
2022-11-30T20:25:21.204Z,97.58
2022-11-30T20:27:50.367Z,97.56
2022-11-30T20:30:19.301Z,97.85
2022-11-30T20:32:47.327Z,97.78
2022-11-30T20:35:15.267Z,97.71
2022-11-30T20:37:43.100Z,97.42
2022-11-30T20:40:12.435Z,97.56
2022-11-30T20:42:40.491Z,97.42
2022-11-30T20:45:10.537Z,97.42
2022-11-30T20:47:38.443Z,97.52
2022-11-30T20:50:07.325Z,97.60
2022-11-30T20:52:38.687Z,97.91
2022-11-30T20:55:08.412Z,98.01
2022-11-30T20:57:39.563Z,98.06
2022-11-30T21:00:13.409Z,98.20
2022-11-30T21:02:47.718Z,98.13
2022-11-30T21:05:20.790Z,98.30
2022-11-30T21:07:50.887Z,98.22
2022-11-30T21:10:21.674Z,98.35
2022-11-30T21:12:49.539Z,98.35
2022-11-30T21:15:17.765Z,98.32
2022-11-30T21:17:45.515Z,98.44
2022-11-30T21:20:13.417Z,98.32
2022-11-30T21:22:41.460Z,98.19
2022-11-30T21:25:11.738Z,98.10
2022-11-30T21:27:39.584Z,98.03
2022-11-30T21:30:08.027Z,98.11
2022-11-30T21:32:36.088Z,98.06
2022-11-30T21:35:04.100Z,98.06
2022-11-30T21:37:33.165Z,98.03
2022-11-30T21:40:01.174Z,97.92
2022-11-30T21:42:28.998Z,97.84
2022-11-30T21:44:56.914Z,97.83
2022-11-30T21:47:24.768Z,97.84
2022-11-30T21:49:52.625Z,97.67
2022-11-30T21:52:20.416Z,97.70
2022-11-30T21:54:53.369Z,97.65
2022-11-30T21:57:24.119Z,97.59
2022-11-30T21:59:51.891Z,97.72
2022-11-30T22:02:22.952Z,97.61
2022-11-30T22:04:50.743Z,97.75
2022-11-30T22:07:31.161Z,97.67
2022-11-30T22:09:59.557Z,97.48
2022-11-30T22:12:27.343Z,97.26
2022-11-30T22:14:55.233Z,97.33
2022-11-30T22:17:23.115Z,97.46
2022-11-30T22:19:50.961Z,97.39
2022-11-30T22:22:18.846Z,97.21
2022-11-30T22:24:46.770Z,97.05
2022-11-30T22:27:14.646Z,97.21
2022-11-30T22:29:42.445Z,97.10
2022-11-30T22:32:10.356Z,97.09
2022-11-30T22:34:40.724Z,96.98
2022-11-30T22:37:08.472Z,96.89
2022-11-30T22:39:36.463Z,96.97
2022-11-30T22:42:04.645Z,96.81
2022-11-30T22:44:32.788Z,96.76
2022-11-30T22:47:04.663Z,97.25
2022-11-30T22:49:33.400Z,97.27
2022-11-30T22:52:01.371Z,97.13
2022-11-30T22:54:29.303Z,97.00
2022-11-30T22:56:57.311Z,97.36
2022-11-30T22:59:25.660Z,96.91
2022-11-30T23:01:54.056Z,97.03
2022-11-30T23:04:25.517Z,97.14
2022-11-30T23:06:59.745Z,97.03
2022-11-30T23:09:27.649Z,96.83
2022-11-30T23:11:59.036Z,96.87
2022-11-30T23:14:26.952Z,96.71
2022-11-30T23:16:54.858Z,97.08
2022-11-30T23:19:48.296Z,96.92
2022-11-30T23:22:41.761Z,96.90
2022-11-30T23:25:10.644Z,97.11
2022-11-30T23:27:38.425Z,97.34
2022-11-30T23:30:11.938Z,97.06
2022-11-30T23:33:31.641Z,97.43
2022-11-30T23:36:01.716Z,97.32
2022-11-30T23:38:29.627Z,97.52
2022-11-30T23:41:11.076Z,97.51
2022-11-30T23:43:39.394Z,97.52
2022-11-30T23:46:09.708Z,97.68
2022-11-30T23:48:38.947Z,97.67
2022-11-30T23:51:06.989Z,97.65
2022-11-30T23:53:35.031Z,97.80
2022-11-30T23:56:05.487Z,97.68
2022-11-30T23:58:34.349Z,97.66
